Borisov, Bielorrusia

12:48 PM FET en Septiembre 30, 2014 (GMT +0300)
Minsk-2 | Change Station
CLOSE
Current Station
Aeropuerto
Location: Minsk In-Min,
Altura: 669 ft
Estaciones meteorológicas cercanas

Alt 669 ft 53.88 °N, 28.03 °E | Updated 18 minutes ago

Clear
Despejado
59 ° F
Sensación térmica 59 ° F
N
13
Viento Variable Viento desde NNO
Gusts 20 mph

Hoy
Alta -- | Baja -- ° F
--% Posibilidad de precipitaciones
Ayer
Alta -- | Baja -- ° F
Precip. -- pul
7:05 AM 6:45 PM
Creciente, 35% visible
Presión 30.12 pul
Visibilidad -9999.0 Millas
Nubes
Punto de rocío 37 ° F
Humedad 45%
Precipitaciones 0.00 pul
Espesor de la nieve No disponible.
UV No disponible.
Polen No disponible.
Calidad del aire No disponible.
Flu Activity No disponible.
METAR UMMS 300930Z 33006G09MPS CAVOK 15/03 Q1020 R31/CLRD// NOSIG

More Conditions Fewer Conditions

Presión 30.12 pul
Visibilidad -9999.0 Millas
Nubes
Punto de rocío 37 ° F
Humedad 45%
Precipitaciones 0.00 pul
Espesor de la nieve No disponible.
UV No disponible.
Polen No disponible.
Calidad del aire No disponible.
Flu Activity No disponible.
METAR UMMS 300930Z 33006G09MPS CAVOK 15/03 Q1020 R31/CLRD// NOSIG

More Conditions Fewer Conditions

10-Day Weather Forecast

Almanac

Astronomía

Sep. 30, 2014 Salida Puesta
Hora real 7:05 AM FET 6:45 PM FET
Crepúsculo civil 6:30 AM FET 7:20 PM FET
Crepúsculo náutico 5:48 AM FET 8:02 PM FET
Crepúsculo astronómico 5:05 AM FET 8:44 PM FET
Luna 1:38 PM FET 10:13 PM FET
Horas de luz 12h 50m
Horas de luz
11h 39m
Tomorrow will be 4m 19s shorter.
Creciente, 35% of the Moon is Illuminated
Hoy
Creciente
Oct 1
Cuarto creciente
Oct 8
Luna llena
Oct 15
Cuarto menguante
Oct 23
Nueva

Extremos de ayer

Máximos del país Bajas del país

Community

WunderPhotos

Upload Photos

1,757,606 ¡fotos cargadas!

Nearby

Calidad del aire

Not available.

Grosos de nieve

Not available.

Actividad de terremotos

Ciudad Distance Mag. Tiempo y dato
No hay informes recientes de la actividad sísmica.
Magnitud mínima muestra es 2,5.

Temperaturas de aguas costeras

Lugar Temperatura
Sin partes meteorológicos de las estaciones

Estaciones meteorológicas cercanas